Time;durP1;ratioP1;P1;durP2;ratioP2;P2;SDS_P1;SDS_P2;PMS_P1;PMS_P2;Temp;Humidity;BMP_temperature;BMP_pressure;BME280_temperature;BME280_humidity;BME280_pressure;Samples;Min_cycle;Max_cycle;Signal;HPM_P1;HPM_P2
2021/09/12 00:00:36;;;;;;;7.47;6.67;;;;;;;;;;5035828;28;20388;-77
2021/09/12 00:03:02;;;;;;;8.10;6.40;;;;;;;;;;5035644;28;20429;-77
2021/09/12 00:05:28;;;;;;;7.27;6.57;;;;;;;;;;5035695;28;20450;-77
2021/09/12 00:07:54;;;;;;;10.57;6.53;;;;;;;;;;5035779;28;20415;-77
2021/09/12 00:10:20;;;;;;;8.00;6.77;;;;;;;;;;5035764;28;20383;-77
2021/09/12 00:12:46;;;;;;;8.83;6.57;;;;;;;;;;5034643;28;20432;-77
2021/09/12 00:15:12;;;;;;;7.83;6.73;;;;;;;;;;5035370;28;20420;-78
2021/09/12 00:17:38;;;;;;;9.30;6.80;;;;;;;;;;5035664;28;20417;-78
2021/09/12 00:20:05;;;;;;;9.00;8.20;;;;;;;;;;5035392;28;20925;-77
2021/09/12 00:22:31;;;;;;;8.40;7.30;;;;;;;;;;5034845;28;20465;-77
2021/09/12 00:24:57;;;;;;;9.67;7.53;;;;;;;;;;5035189;28;20464;-77
2021/09/12 00:27:23;;;;;;;9.30;7.17;;;;;;;;;;5017597;28;20421;-76
2021/09/12 00:29:49;;;;;;;9.80;6.80;;;;;;;;;;5035459;28;20751;-77
2021/09/12 00:32:15;;;;;;;6.63;5.80;;;;;;;;;;5034766;28;20433;-76
2021/09/12 00:34:41;;;;;;;7.30;6.13;;;;;;;;;;5017472;28;20417;-78
2021/09/12 00:37:07;;;;;;;8.67;7.87;;;;;;;;;;5035368;28;20425;-78
2021/09/12 00:39:33;;;;;;;8.70;7.90;;;;;;;;;;5035227;28;20790;-77
2021/09/12 00:41:59;;;;;;;10.50;7.77;;;;;;;;;;5034827;28;20467;-77
2021/09/12 00:44:25;;;;;;;9.00;6.43;;;;;;;;;;5034825;28;20858;-76
2021/09/12 00:46:53;;;;;;;7.63;6.60;;;;;;;;;;5034870;28;20387;-76
2021/09/12 00:49:19;;;;;;;8.10;7.30;;;;;;;;;;5034734;28;20400;-77
2021/09/12 00:51:45;;;;;;;7.90;6.77;;;;;;;;;;5016760;28;20928;-76
2021/09/12 00:54:12;;;;;;;8.33;7.53;;;;;;;;;;5035221;28;20412;-76
2021/09/12 00:56:39;;;;;;;7.23;6.60;;;;;;;;;;5017152;28;20507;-78
2021/09/12 00:59:07;;;;;;;9.30;7.10;;;;;;;;;;5034779;28;20823;-76
2021/09/12 01:01:34;;;;;;;7.80;7.00;;;;;;;;;;5034432;28;20939;-78
2021/09/12 01:04:00;;;;;;;8.00;7.13;;;;;;;;;;5034574;28;20494;-77
2021/09/12 01:06:26;;;;;;;7.27;6.47;;;;;;;;;;5016851;28;20760;-76
2021/09/12 01:08:52;;;;;;;9.40;7.00;;;;;;;;;;5034496;28;20420;-77
2021/09/12 01:11:18;;;;;;;6.33;5.80;;;;;;;;;;5034245;28;20821;-77
2021/09/12 01:13:44;;;;;;;7.90;6.30;;;;;;;;;;5034497;28;20399;-77
2021/09/12 01:16:11;;;;;;;6.83;6.13;;;;;;;;;;5034551;28;20444;-77
2021/09/12 01:18:37;;;;;;;6.10;5.60;;;;;;;;;;5034497;28;20757;-78
2021/09/12 01:21:03;;;;;;;6.20;5.60;;;;;;;;;;5033818;28;20429;-77
2021/09/12 01:23:29;;;;;;;7.00;6.30;;;;;;;;;;5033295;28;20416;-76
2021/09/12 01:25:55;;;;;;;6.80;6.20;;;;;;;;;;5016360;28;20468;-77
2021/09/12 01:28:21;;;;;;;12.87;5.63;;;;;;;;;;5034114;28;20793;-77
2021/09/12 01:30:47;;;;;;;5.50;5.00;;;;;;;;;;5033620;28;20445;-78
2021/09/12 01:33:13;;;;;;;6.50;5.90;;;;;;;;;;5033848;28;20748;-76
2021/09/12 01:35:39;;;;;;;7.73;5.73;;;;;;;;;;5016239;28;20429;-78
2021/09/12 01:38:05;;;;;;;7.10;6.33;;;;;;;;;;5016539;28;20444;-77
2021/09/12 01:40:31;;;;;;;8.00;6.13;;;;;;;;;;5033837;28;20776;-78
2021/09/12 01:43:00;;;;;;;7.00;6.27;;;;;;;;;;5033728;28;20407;-76
2021/09/12 01:45:26;;;;;;;7.57;6.50;;;;;;;;;;5034034;28;20456;-77
2021/09/12 01:47:58;;;;;;;6.57;5.83;;;;;;;;;;5033953;28;20920;-77
2021/09/12 01:50:25;;;;;;;8.13;6.10;;;;;;;;;;5033992;28;20376;-76
2021/09/12 01:52:51;;;;;;;8.10;6.20;;;;;;;;;;5033369;28;20436;-76
2021/09/12 01:55:17;;;;;;;9.03;7.00;;;;;;;;;;5033703;28;20413;-77
2021/09/12 01:57:43;;;;;;;7.03;6.40;;;;;;;;;;5033787;28;20421;-76
2021/09/12 02:00:09;;;;;;;6.47;5.30;;;;;;;;;;5033665;28;20463;-76
2021/09/12 02:02:36;;;;;;;6.57;5.97;;;;;;;;;;5033031;28;20531;-76
2021/09/12 02:05:02;;;;;;;6.10;5.50;;;;;;;;;;5033592;28;20472;-76
2021/09/12 02:07:28;;;;;;;6.93;6.27;;;;;;;;;;5033476;28;20463;-77
2021/09/12 02:09:54;;;;;;;7.37;6.47;;;;;;;;;;5016012;28;20421;-76
2021/09/12 02:12:20;;;;;;;9.60;6.87;;;;;;;;;;5033170;28;20859;-77
2021/09/12 02:14:46;;;;;;;7.67;6.70;;;;;;;;;;5033640;28;20488;-77
2021/09/12 02:17:12;;;;;;;8.13;5.80;;;;;;;;;;5033441;28;20444;-77
2021/09/12 02:19:38;;;;;;;6.50;5.37;;;;;;;;;;5033285;28;20856;-77
2021/09/12 02:22:04;;;;;;;6.73;6.07;;;;;;;;;;5015248;28;20456;-78
2021/09/12 02:24:30;;;;;;;6.10;5.50;;;;;;;;;;5033265;28;20467;-76
2021/09/12 02:26:56;;;;;;;7.47;6.10;;;;;;;;;;5033326;28;20886;-78
2021/09/12 02:29:22;;;;;;;8.37;5.83;;;;;;;;;;5033103;28;20420;-77
2021/09/12 02:31:48;;;;;;;8.07;6.70;;;;;;;;;;5032786;28;20491;-77
2021/09/12 02:34:14;;;;;;;6.80;6.10;;;;;;;;;;5032952;28;20778;-77
2021/09/12 02:36:40;;;;;;;6.77;6.00;;;;;;;;;;5033312;28;20413;-77
2021/09/12 02:39:06;;;;;;;6.00;5.37;;;;;;;;;;5033335;28;20417;-76
2021/09/12 02:41:31;;;;;;;12.60;6.67;;;;;;;;;;5032788;28;20431;-78
2021/09/12 02:43:57;;;;;;;7.83;6.47;;;;;;;;;;5033142;28;20510;-76
2021/09/12 02:46:23;;;;;;;7.63;6.60;;;;;;;;;;5033186;28;20422;-77
2021/09/12 02:48:49;;;;;;;7.77;6.60;;;;;;;;;;5033017;28;20460;-76
2021/09/12 02:51:15;;;;;;;8.60;6.00;;;;;;;;;;5032706;28;20463;-77
2021/09/12 02:53:41;;;;;;;7.00;6.30;;;;;;;;;;5032925;28;21032;-77
2021/09/12 02:56:07;;;;;;;6.40;5.80;;;;;;;;;;5015656;28;20417;-77
2021/09/12 02:58:33;;;;;;;6.80;6.13;;;;;;;;;;5033115;28;20409;-77
2021/09/12 03:00:59;;;;;;;7.70;6.40;;;;;;;;;;5015100;28;20413;-76
2021/09/12 03:03:25;;;;;;;9.77;7.30;;;;;;;;;;5033109;28;20419;-77
2021/09/12 03:05:52;;;;;;;6.73;6.17;;;;;;;;;;5032912;28;20431;-76
2021/09/12 03:08:18;;;;;;;9.00;6.00;;;;;;;;;;5032921;28;20413;-77
2021/09/12 03:10:44;;;;;;;7.30;6.60;;;;;;;;;;5032487;28;20417;-76
2021/09/12 03:13:10;;;;;;;7.30;6.47;;;;;;;;;;5032888;28;20420;-77
2021/09/12 03:15:36;;;;;;;6.60;6.00;;;;;;;;;;5032442;28;20412;-78
2021/09/12 03:18:02;;;;;;;6.23;5.73;;;;;;;;;;5032591;28;20409;-77
2021/09/12 03:20:28;;;;;;;7.00;6.40;;;;;;;;;;5032782;28;20462;-76
2021/09/12 03:22:54;;;;;;;8.50;6.27;;;;;;;;;;5032332;28;20433;-76
2021/09/12 03:25:20;;;;;;;8.27;7.30;;;;;;;;;;5032595;28;20534;-76
2021/09/12 03:27:46;;;;;;;8.37;6.83;;;;;;;;;;5032522;28;20409;-76
2021/09/12 03:30:12;;;;;;;11.23;7.07;;;;;;;;;;5014727;28;20780;-78
2021/09/12 03:32:38;;;;;;;7.90;6.43;;;;;;;;;;5032299;28;20445;-77
2021/09/12 03:35:04;;;;;;;7.10;6.20;;;;;;;;;;5032642;28;20420;-77
2021/09/12 03:37:30;;;;;;;7.60;6.80;;;;;;;;;;5032599;28;20416;-78
2021/09/12 03:39:56;;;;;;;8.30;7.23;;;;;;;;;;5014787;28;20478;-77
2021/09/12 03:42:22;;;;;;;9.80;7.07;;;;;;;;;;5032216;28;20845;-77
2021/09/12 03:44:48;;;;;;;9.97;8.07;;;;;;;;;;5032820;28;20977;-77
2021/09/12 03:47:14;;;;;;;7.50;6.80;;;;;;;;;;5034497;28;20401;-77
2021/09/12 03:49:40;;;;;;;9.33;6.67;;;;;;;;;;5036306;28;20432;-77
2021/09/12 03:52:06;;;;;;;7.07;6.40;;;;;;;;;;5035565;28;20465;-77
2021/09/12 03:54:32;;;;;;;7.13;6.43;;;;;;;;;;5018802;28;20464;-77
2021/09/12 03:56:58;;;;;;;10.13;7.80;;;;;;;;;;5018512;28;20417;-76
2021/09/12 03:59:24;;;;;;;8.90;7.33;;;;;;;;;;5036074;28;20409;-78
2021/09/12 04:01:50;;;;;;;8.37;7.50;;;;;;;;;;5035615;28;20516;-77
2021/09/12 04:04:16;;;;;;;11.03;7.40;;;;;;;;;;5035675;28;20526;-78
2021/09/12 04:06:42;;;;;;;7.63;6.93;;;;;;;;;;5035949;28;20408;-77
2021/09/12 04:09:08;;;;;;;7.00;6.30;;;;;;;;;;5035817;28;20499;-76
2021/09/12 04:11:34;;;;;;;9.23;6.87;;;;;;;;;;5035465;28;20433;-79
2021/09/12 04:14:00;;;;;;;9.43;7.23;;;;;;;;;;5035623;28;20444;-78
2021/09/12 04:16:26;;;;;;;6.77;6.17;;;;;;;;;;5035661;28;20421;-78
2021/09/12 04:18:52;;;;;;;7.00;6.30;;;;;;;;;;5035572;28;20953;-76
2021/09/12 04:21:18;;;;;;;7.60;6.87;;;;;;;;;;5017513;28;20482;-76
2021/09/12 04:23:43;;;;;;;7.30;6.50;;;;;;;;;;5035480;28;20825;-78
2021/09/12 04:26:09;;;;;;;8.40;7.53;;;;;;;;;;5035349;28;20409;-76
2021/09/12 04:28:35;;;;;;;15.77;7.17;;;;;;;;;;5035385;28;20492;-76
2021/09/12 04:31:01;;;;;;;7.53;6.83;;;;;;;;;;5034974;28;20420;-77
2021/09/12 04:33:28;;;;;;;7.93;7.13;;;;;;;;;;5035251;28;20491;-77
2021/09/12 04:35:53;;;;;;;8.10;7.10;;;;;;;;;;5035388;28;20421;-78
2021/09/12 04:38:19;;;;;;;9.83;7.80;;;;;;;;;;5035176;28;20844;-78
2021/09/12 04:40:45;;;;;;;7.97;7.10;;;;;;;;;;5034618;28;20416;-76
2021/09/12 04:43:11;;;;;;;11.47;7.00;;;;;;;;;;5035278;28;20750;-78
2021/09/12 04:45:37;;;;;;;10.10;7.57;;;;;;;;;;5035449;28;20479;-78
2021/09/12 04:48:04;;;;;;;17.43;7.67;;;;;;;;;;5035027;28;20409;-78
2021/09/12 04:50:30;;;;;;;9.53;7.87;;;;;;;;;;5034893;28;20440;-77
2021/09/12 04:52:55;;;;;;;11.53;8.17;;;;;;;;;;5016801;28;20979;-76
2021/09/12 04:55:21;;;;;;;8.50;7.57;;;;;;;;;;5034726;28;20448;-77
2021/09/12 04:57:47;;;;;;;7.83;7.07;;;;;;;;;;5034785;28;20964;-78
2021/09/12 05:00:14;;;;;;;9.80;7.90;;;;;;;;;;5035074;28;20748;-77
2021/09/12 05:02:40;;;;;;;10.83;6.87;;;;;;;;;;5016773;28;20464;-79
2021/09/12 05:05:06;;;;;;;8.60;7.20;;;;;;;;;;5034765;28;20465;-76
2021/09/12 05:07:32;;;;;;;9.53;7.60;;;;;;;;;;5034800;28;20447;-77
2021/09/12 05:09:58;;;;;;;9.23;7.67;;;;;;;;;;5034738;28;20771;-77
2021/09/12 05:12:24;;;;;;;7.73;6.93;;;;;;;;;;5034267;28;20407;-77
2021/09/12 05:14:50;;;;;;;9.33;7.13;;;;;;;;;;5034189;28;20487;-78
2021/09/12 05:17:16;;;;;;;8.97;8.00;;;;;;;;;;5034585;28;20760;-76
2021/09/12 05:19:42;;;;;;;10.80;7.50;;;;;;;;;;5034405;28;20451;-76
2021/09/12 05:22:08;;;;;;;8.50;6.20;;;;;;;;;;5016428;28;20441;-78
2021/09/12 05:24:34;;;;;;;10.40;6.70;;;;;;;;;;5034508;28;20473;-76
2021/09/12 05:27:00;;;;;;;8.40;7.53;;;;;;;;;;5016631;28;20499;-76
2021/09/12 05:29:26;;;;;;;9.47;8.47;;;;;;;;;;5016645;28;20405;-78
2021/09/12 05:31:52;;;;;;;9.97;8.10;;;;;;;;;;5033723;28;20432;-77
2021/09/12 05:34:18;;;;;;;11.77;8.40;;;;;;;;;;5034089;28;20920;-77
2021/09/12 05:36:44;;;;;;;12.70;9.63;;;;;;;;;;5034018;28;20445;-77
2021/09/12 05:39:11;;;;;;;10.43;8.90;;;;;;;;;;5033666;28;20436;-77
2021/09/12 05:41:37;;;;;;;10.70;9.07;;;;;;;;;;5033548;28;20515;-77
2021/09/12 05:44:03;;;;;;;14.73;10.27;;;;;;;;;;5033797;28;20548;-76
2021/09/12 05:46:29;;;;;;;13.73;11.10;;;;;;;;;;5033942;28;20780;-76
2021/09/12 05:48:55;;;;;;;10.90;9.13;;;;;;;;;;5033665;28;20790;-79
2021/09/12 05:51:21;;;;;;;14.10;10.77;;;;;;;;;;5033544;28;20439;-76
2021/09/12 05:53:47;;;;;;;11.70;10.57;;;;;;;;;;5033815;28;20890;-78
2021/09/12 05:56:13;;;;;;;13.50;9.80;;;;;;;;;;5016478;28;20505;-77
2021/09/12 05:58:39;;;;;;;12.97;10.03;;;;;;;;;;5033731;28;20409;-77
2021/09/12 06:01:05;;;;;;;11.80;10.50;;;;;;;;;;5033474;28;20437;-78
2021/09/12 06:03:31;;;;;;;13.60;10.30;;;;;;;;;;5033709;28;20422;-77
2021/09/12 06:05:57;;;;;;;14.07;10.27;;;;;;;;;;5033624;28;20471;-77
2021/09/12 06:08:23;;;;;;;10.53;9.43;;;;;;;;;;5033564;28;20779;-78
2021/09/12 06:10:49;;;;;;;13.50;9.90;;;;;;;;;;5032675;28;20424;-78
2021/09/12 06:13:15;;;;;;;12.90;10.00;;;;;;;;;;5033359;28;20421;-78
2021/09/12 06:15:41;;;;;;;11.33;10.23;;;;;;;;;;5015823;28;20452;-77
2021/09/12 06:18:07;;;;;;;12.47;9.63;;;;;;;;;;5016123;28;20490;-76
2021/09/12 06:20:33;;;;;;;17.20;9.87;;;;;;;;;;5015651;28;20432;-78
2021/09/12 06:22:59;;;;;;;13.20;9.60;;;;;;;;;;5033134;28;20524;-78
2021/09/12 06:25:25;;;;;;;10.80;9.70;;;;;;;;;;5032879;28;20633;-78
2021/09/12 06:27:51;;;;;;;12.23;10.53;;;;;;;;;;5015649;28;20619;-76
2021/09/12 06:30:18;;;;;;;14.10;10.13;;;;;;;;;;5015570;28;20523;-76
2021/09/12 06:32:44;;;;;;;13.50;10.03;;;;;;;;;;5032844;28;20434;-77
2021/09/12 06:35:10;;;;;;;9.93;8.90;;;;;;;;;;5015251;28;20413;-79
2021/09/12 06:37:36;;;;;;;9.73;8.73;;;;;;;;;;5032973;28;20507;-78
2021/09/12 06:40:05;;;;;;;15.57;9.70;;;;;;;;;;5032844;28;20503;-78
2021/09/12 06:42:31;;;;;;;11.60;10.40;;;;;;;;;;5032651;28;20421;-78
2021/09/12 06:44:57;;;;;;;13.97;8.57;;;;;;;;;;5032972;28;20794;-76
2021/09/12 06:47:23;;;;;;;12.03;9.50;;;;;;;;;;5032985;28;20932;-79
2021/09/12 06:49:49;;;;;;;15.30;9.10;;;;;;;;;;5032816;28;20411;-78
2021/09/12 06:52:15;;;;;;;10.83;9.73;;;;;;;;;;5032549;28;20429;-77
2021/09/12 06:54:41;;;;;;;8.60;7.70;;;;;;;;;;5032989;28;20409;-77
2021/09/12 06:57:08;;;;;;;9.90;8.90;;;;;;;;;;5032898;28;20463;-76
2021/09/12 06:59:34;;;;;;;9.10;7.47;;;;;;;;;;5032707;28;20421;-76
2021/09/12 07:02:00;;;;;;;8.27;7.50;;;;;;;;;;5014910;28;20447;-78
2021/09/12 07:04:26;;;;;;;13.70;7.93;;;;;;;;;;5032633;28;20812;-77
2021/09/12 07:06:52;;;;;;;11.07;8.00;;;;;;;;;;5032727;28;20388;-75
2021/09/12 07:09:18;;;;;;;12.10;7.53;;;;;;;;;;5032804;28;20401;-76
2021/09/12 07:11:44;;;;;;;11.20;7.10;;;;;;;;;;5032147;28;20789;-76
2021/09/12 07:14:10;;;;;;;11.23;7.13;;;;;;;;;;5032920;28;20499;-76
2021/09/12 07:16:36;;;;;;;13.77;7.40;;;;;;;;;;5015534;28;20420;-76
2021/09/12 07:19:07;;;;;;;13.30;7.40;;;;;;;;;;5032827;28;20952;-78
2021/09/12 07:21:33;;;;;;;9.50;7.40;;;;;;;;;;5033002;28;20947;-76
2021/09/12 07:23:59;;;;;;;10.43;6.60;;;;;;;;;;5036348;28;20459;-76
2021/09/12 07:26:25;;;;;;;8.63;5.97;;;;;;;;;;5036463;28;20515;-77
2021/09/12 07:28:51;;;;;;;7.03;5.60;;;;;;;;;;5036378;28;20413;-75
2021/09/12 07:31:17;;;;;;;8.00;5.30;;;;;;;;;;5035665;28;20949;-77
2021/09/12 07:33:43;;;;;;;9.40;6.37;;;;;;;;;;5018633;28;20524;-79
2021/09/12 07:36:09;;;;;;;10.90;4.83;;;;;;;;;;5036215;28;20420;-76
2021/09/12 07:38:35;;;;;;;6.00;4.57;;;;;;;;;;5036201;28;20456;-75
2021/09/12 07:41:01;;;;;;;7.50;4.87;;;;;;;;;;5035700;28;20783;-76
2021/09/12 07:43:27;;;;;;;9.80;5.37;;;;;;;;;;5036001;28;20420;-78
2021/09/12 07:45:53;;;;;;;6.03;4.40;;;;;;;;;;5035915;28;20499;-77
2021/09/12 07:48:19;;;;;;;7.07;4.50;;;;;;;;;;5018329;28;20459;-78
2021/09/12 07:50:46;;;;;;;11.33;4.97;;;;;;;;;;5018309;28;20409;-76
2021/09/12 07:53:12;;;;;;;10.77;5.80;;;;;;;;;;5035977;28;20412;-75
2021/09/12 07:55:38;;;;;;;5.43;4.30;;;;;;;;;;5036024;28;20431;-79
2021/09/12 07:58:04;;;;;;;7.63;4.73;;;;;;;;;;5036225;28;20408;-79
2021/09/12 08:00:30;;;;;;;5.27;4.03;;;;;;;;;;5035307;28;20412;-77
2021/09/12 08:02:56;;;;;;;8.73;4.70;;;;;;;;;;5037402;28;20452;-79
2021/09/12 08:05:23;;;;;;;9.43;4.37;;;;;;;;;;5036819;28;20435;-76
2021/09/12 08:07:49;;;;;;;4.60;3.20;;;;;;;;;;5036547;28;20405;-78
2021/09/12 08:10:15;;;;;;;6.73;5.13;;;;;;;;;;5018755;28;20420;-78
2021/09/12 08:12:41;;;;;;;4.57;4.00;;;;;;;;;;5035599;28;20432;-78
2021/09/12 08:15:08;;;;;;;7.33;5.03;;;;;;;;;;5035867;28;20417;-78
2021/09/12 08:17:34;;;;;;;7.30;3.77;;;;;;;;;;5035709;28;20396;-79
2021/09/12 08:20:00;;;;;;;5.93;3.53;;;;;;;;;;5035662;28;20404;-80
2021/09/12 08:22:26;;;;;;;5.70;4.27;;;;;;;;;;5035551;28;20448;-77
2021/09/12 08:24:52;;;;;;;4.73;3.13;;;;;;;;;;5018224;28;20950;-79
2021/09/12 08:27:18;;;;;;;6.40;3.20;;;;;;;;;;5035866;28;20492;-80
2021/09/12 08:29:44;;;;;;;5.23;3.33;;;;;;;;;;5036246;28;20508;-78
2021/09/12 08:32:10;;;;;;;3.63;2.30;;;;;;;;;;5034820;28;20448;-80
2021/09/12 08:34:39;;;;;;;3.57;3.10;;;;;;;;;;5035450;28;20395;-78
2021/09/12 08:37:05;;;;;;;9.10;3.57;;;;;;;;;;5035668;28;20420;-77
2021/09/12 08:39:31;;;;;;;10.23;4.00;;;;;;;;;;5035642;28;20942;-79
2021/09/12 08:41:58;;;;;;;4.70;3.27;;;;;;;;;;5016732;28;20523;-78
2021/09/12 08:44:24;;;;;;;4.57;2.90;;;;;;;;;;5034665;28;20452;-79
2021/09/12 08:46:50;;;;;;;5.00;2.83;;;;;;;;;;5035283;28;20831;-79
2021/09/12 08:49:17;;;;;;;4.50;3.10;;;;;;;;;;5035095;28;20425;-78
2021/09/12 08:51:43;;;;;;;8.57;3.90;;;;;;;;;;5034648;28;20483;-78
2021/09/12 08:54:09;;;;;;;5.10;2.60;;;;;;;;;;5035223;28;20820;-77
2021/09/12 08:56:35;;;;;;;3.47;2.40;;;;;;;;;;5034950;28;20417;-77
2021/09/12 08:59:01;;;;;;;3.60;2.53;;;;;;;;;;5035013;28;20408;-78
2021/09/12 09:01:34;;;;;;;3.80;2.70;;;;;;;;;;5034465;28;20813;-78
2021/09/12 09:04:04;;;;;;;3.97;2.10;;;;;;;;;;5034713;28;20534;-77
2021/09/12 09:06:34;;;;;;;3.40;2.00;;;;;;;;;;5016888;28;20528;-80
2021/09/12 09:09:00;;;;;;;5.70;2.43;;;;;;;;;;5034889;28;20804;-78
2021/09/12 09:11:31;;;;;;;3.20;2.90;;;;;;;;;;5034933;28;20456;-78
2021/09/12 09:14:11;;;;;;;4.80;2.63;;;;;;;;;;5017389;28;20417;-77
2021/09/12 09:16:37;;;;;;;2.97;2.67;;;;;;;;;;5034920;28;20390;-79
2021/09/12 09:19:04;;;;;;;12.33;2.40;;;;;;;;;;5034903;28;20479;-79
2021/09/12 09:21:31;;;;;;;2.43;2.20;;;;;;;;;;5034413;28;20408;-81
2021/09/12 09:24:17;;;;;;;4.63;2.43;;;;;;;;;;5034695;28;20397;-77
2021/09/12 09:26:50;;;;;;;3.13;1.90;;;;;;;;;;5016834;28;20409;-78
2021/09/12 09:29:24;;;;;;;4.17;1.57;;;;;;;;;;5034582;28;20812;-78
2021/09/12 09:32:01;;;;;;;5.00;2.00;;;;;;;;;;5034014;28;20470;-76
2021/09/12 09:34:27;;;;;;;5.97;2.00;;;;;;;;;;5034346;28;20379;-76
2021/09/12 09:37:06;;;;;;;4.93;1.83;;;;;;;;;;5034930;28;20445;-80
2021/09/12 09:39:35;;;;;;;2.80;2.17;;;;;;;;;;5034909;28;20409;-76
2021/09/12 09:42:02;;;;;;;7.07;2.43;;;;;;;;;;5033623;28;20429;-80
2021/09/12 09:44:28;;;;;;;3.57;2.23;;;;;;;;;;5015078;28;20471;-78
2021/09/12 09:46:54;;;;;;;4.30;2.30;;;;;;;;;;5016352;28;20384;-78
2021/09/12 09:49:21;;;;;;;3.30;1.93;;;;;;;;;;5033805;28;20395;-80
2021/09/12 09:51:48;;;;;;;1.93;1.77;;;;;;;;;;5033570;28;20523;-76
2021/09/12 09:54:15;;;;;;;3.63;1.80;;;;;;;;;;5033822;28;20417;-77
2021/09/12 09:56:43;;;;;;;3.53;2.10;;;;;;;;;;5015813;28;20474;-78
2021/09/12 09:59:09;;;;;;;4.30;2.10;;;;;;;;;;5033788;28;20390;-77
2021/09/12 10:01:35;;;;;;;4.70;2.57;;;;;;;;;;5033854;28;20490;-79
2021/09/12 10:04:01;;;;;;;6.13;2.30;;;;;;;;;;5035054;28;20500;-77
2021/09/12 10:06:29;;;;;;;3.03;2.10;;;;;;;;;;5035818;28;20393;-76
2021/09/12 10:08:55;;;;;;;2.60;2.07;;;;;;;;;;5016152;28;20772;-77
2021/09/12 10:11:21;;;;;;;2.73;1.70;;;;;;;;;;5033450;28;20432;-77
2021/09/12 10:13:48;;;;;;;3.90;2.20;;;;;;;;;;5033399;28;20440;-77
2021/09/12 10:16:17;;;;;;;2.90;1.70;;;;;;;;;;5033537;28;20947;-77
2021/09/12 10:18:44;;;;;;;3.33;1.97;;;;;;;;;;5033555;28;20413;-76
2021/09/12 10:21:39;;;;;;;2.13;1.70;;;;;;;;;;5032880;28;20502;-77
2021/09/12 10:24:08;;;;;;;3.47;1.90;;;;;;;;;;5012333;28;20478;-78
2021/09/12 10:26:40;;;;;;;3.87;1.83;;;;;;;;;;5033308;28;20421;-77
2021/09/12 10:29:27;;;;;;;2.43;1.50;;;;;;;;;;5033250;28;20420;-77
2021/09/12 10:31:53;;;;;;;4.17;1.40;;;;;;;;;;5016049;28;20444;-77
2021/09/12 10:34:19;;;;;;;2.60;1.40;;;;;;;;;;5033397;28;20415;-79
2021/09/12 10:36:45;;;;;;;3.50;1.50;;;;;;;;;;5033302;28;20409;-77
2021/09/12 10:39:27;;;;;;;3.67;1.53;;;;;;;;;;5033139;28;20409;-77
2021/09/12 10:42:14;;;;;;;4.03;1.60;;;;;;;;;;5032861;28;20436;-77
2021/09/12 10:44:40;;;;;;;2.10;1.50;;;;;;;;;;5016131;28;20475;-76
2021/09/12 10:47:10;;;;;;;3.73;1.50;;;;;;;;;;5033233;28;20417;-78
2021/09/12 10:49:36;;;;;;;2.60;1.60;;;;;;;;;;5032930;28;20566;-77
2021/09/12 10:52:03;;;;;;;4.70;1.67;;;;;;;;;;5015481;28;20523;-77
2021/09/12 10:54:31;;;;;;;1.63;1.50;;;;;;;;;;5033180;28;20937;-78
2021/09/12 10:57:07;;;;;;;2.90;1.60;;;;;;;;;;5036500;28;20417;-78
2021/09/12 10:59:33;;;;;;;2.23;1.50;;;;;;;;;;5037183;28;20486;-77
2021/09/12 11:01:59;;;;;;;3.33;1.73;;;;;;;;;;5036583;28;20435;-78
2021/09/12 11:04:30;;;;;;;2.63;1.77;;;;;;;;;;5036848;28;20435;-79
2021/09/12 11:07:03;;;;;;;1.83;1.20;;;;;;;;;;5037002;28;20405;-78
2021/09/12 11:09:30;;;;;;;2.77;1.80;;;;;;;;;;5036898;28;20404;-77
2021/09/12 11:12:00;;;;;;;1.60;1.50;;;;;;;;;;5036599;28;20399;-78
2021/09/12 11:14:27;;;;;;;2.27;1.67;;;;;;;;;;5036787;28;20462;-78
2021/09/12 11:16:53;;;;;;;4.80;1.47;;;;;;;;;;5038983;28;20395;-78
2021/09/12 11:19:19;;;;;;;2.07;1.30;;;;;;;;;;5036143;28;20896;-77
2021/09/12 11:21:46;;;;;;;2.10;1.60;;;;;;;;;;5043744;28;20939;-77
2021/09/12 11:24:12;;;;;;;2.40;1.77;;;;;;;;;;5047919;28;20459;-78
2021/09/12 11:26:38;;;;;;;2.90;1.87;;;;;;;;;;5056638;28;20387;-76
2021/09/12 11:29:06;;;;;;;3.97;1.83;;;;;;;;;;5056572;28;20459;-78
2021/09/12 11:31:34;;;;;;;3.20;1.60;;;;;;;;;;5056029;28;20519;-78
2021/09/12 11:34:00;;;;;;;1.70;1.60;;;;;;;;;;5056355;28;20412;-77
2021/09/12 11:36:26;;;;;;;1.97;1.50;;;;;;;;;;5056645;28;20419;-78
2021/09/12 11:38:55;;;;;;;2.70;1.77;;;;;;;;;;5056415;28;20391;-77
2021/09/12 11:41:22;;;;;;;4.13;1.60;;;;;;;;;;5055917;28;20899;-77
2021/09/12 11:43:56;;;;;;;2.60;1.60;;;;;;;;;;5038256;28;20978;-77
2021/09/12 11:46:22;;;;;;;3.67;2.20;;;;;;;;;;5056251;28;20422;-77
2021/09/12 11:49:06;;;;;;;6.40;2.07;;;;;;;;;;5055956;28;20428;-76
2021/09/12 11:51:35;;;;;;;5.27;1.97;;;;;;;;;;5049202;28;20845;-77
2021/09/12 11:54:04;;;;;;;2.00;1.50;;;;;;;;;;5040181;28;20408;-76
2021/09/12 11:56:30;;;;;;;3.17;2.33;;;;;;;;;;5045380;28;20413;-75
2021/09/12 11:58:56;;;;;;;2.33;1.57;;;;;;;;;;5042410;28;20398;-76
2021/09/12 12:01:22;;;;;;;1.97;1.60;;;;;;;;;;5035715;28;20403;-76
2021/09/12 12:03:49;;;;;;;3.03;1.90;;;;;;;;;;5035668;28;20417;-77
2021/09/12 12:06:15;;;;;;;2.90;2.03;;;;;;;;;;5036106;28;20840;-77
2021/09/12 12:08:59;;;;;;;1.87;1.57;;;;;;;;;;5017629;28;20504;-77
2021/09/12 12:11:26;;;;;;;3.67;1.50;;;;;;;;;;5035347;28;20428;-77
2021/09/12 12:13:52;;;;;;;2.30;2.10;;;;;;;;;;5035801;28;20917;-78
2021/09/12 12:16:18;;;;;;;2.73;1.80;;;;;;;;;;5035690;28;20394;-77
2021/09/12 12:18:44;;;;;;;2.20;1.73;;;;;;;;;;5035837;28;20392;-77
2021/09/12 12:21:11;;;;;;;4.10;1.80;;;;;;;;;;5035126;28;20429;-77
2021/09/12 12:23:37;;;;;;;4.13;1.80;;;;;;;;;;5035558;28;20417;-76
2021/09/12 12:26:15;;;;;;;4.10;2.03;;;;;;;;;;5035272;28;20483;-77
2021/09/12 12:28:41;;;;;;;4.30;1.83;;;;;;;;;;5035642;28;20401;-77
2021/09/12 12:31:14;;;;;;;10.50;1.87;;;;;;;;;;5034956;28;20435;-76
2021/09/12 12:33:42;;;;;;;3.93;1.70;;;;;;;;;;5035330;28;20400;-76
2021/09/12 12:36:09;;;;;;;5.03;1.80;;;;;;;;;;5035199;28;20413;-77
2021/09/12 12:38:36;;;;;;;6.70;1.73;;;;;;;;;;5035437;28;20746;-77
2021/09/12 12:41:03;;;;;;;3.10;1.90;;;;;;;;;;5034653;28;20503;-76
2021/09/12 12:43:29;;;;;;;5.50;1.93;;;;;;;;;;5034791;28;20401;-76
2021/09/12 12:45:55;;;;;;;2.97;1.80;;;;;;;;;;5034627;28;20452;-78
2021/09/12 12:48:21;;;;;;;3.60;1.90;;;;;;;;;;5034894;28;20407;-76
2021/09/12 12:50:50;;;;;;;2.77;1.97;;;;;;;;;;5016890;28;20421;-76
2021/09/12 12:53:32;;;;;;;1.67;1.50;;;;;;;;;;5035015;28;20496;-77
2021/09/12 12:56:00;;;;;;;2.00;1.80;;;;;;;;;;5035206;28;20488;-77
2021/09/12 12:58:26;;;;;;;2.57;1.60;;;;;;;;;;5034934;28;20507;-76
2021/09/12 13:00:53;;;;;;;4.27;1.80;;;;;;;;;;5034389;28;20490;-76
2021/09/12 13:03:19;;;;;;;2.27;1.53;;;;;;;;;;5034937;28;20397;-76
2021/09/12 13:05:46;;;;;;;4.70;1.93;;;;;;;;;;5034589;28;20467;-77
2021/09/12 13:08:13;;;;;;;4.90;1.90;;;;;;;;;;5034267;28;20412;-77
2021/09/12 13:10:40;;;;;;;1.53;1.37;;;;;;;;;;5034181;28;20408;-77
2021/09/12 13:13:06;;;;;;;2.67;1.40;;;;;;;;;;5016756;28;20445;-76
2021/09/12 13:15:32;;;;;;;3.77;1.47;;;;;;;;;;5034500;28;20398;-77
2021/09/12 13:17:58;;;;;;;3.47;1.50;;;;;;;;;;5034426;28;20428;-76
2021/09/12 13:20:24;;;;;;;3.37;1.40;;;;;;;;;;5034401;28;20869;-77
2021/09/12 13:22:50;;;;;;;1.83;1.30;;;;;;;;;;5034005;28;20503;-76
2021/09/12 13:25:16;;;;;;;3.58;1.60;;;;;;;;;;5033027;28;20432;-77
2021/09/12 13:27:43;;;;;;;2.80;1.47;;;;;;;;;;5033817;28;20177;-78
2021/09/12 13:30:09;;;;;;;3.23;1.60;;;;;;;;;;5034126;28;20492;-76
2021/09/12 13:32:35;;;;;;;1.50;1.40;;;;;;;;;;5033718;28;20400;-75
2021/09/12 13:35:01;;;;;;;2.23;1.60;;;;;;;;;;5034309;28;20420;-76
2021/09/12 13:37:27;;;;;;;1.50;1.17;;;;;;;;;;5034117;28;20779;-77
2021/09/12 13:39:53;;;;;;;2.13;1.20;;;;;;;;;;5034044;28;20421;-77
2021/09/12 13:42:19;;;;;;;3.30;1.60;;;;;;;;;;5033359;28;21210;-77
2021/09/12 13:44:45;;;;;;;2.97;1.70;;;;;;;;;;5033678;28;20529;-77
2021/09/12 13:47:11;;;;;;;2.77;1.57;;;;;;;;;;5033997;28;20409;-77
2021/09/12 13:49:37;;;;;;;1.87;1.77;;;;;;;;;;5033802;28;20566;-77
2021/09/12 13:52:03;;;;;;;2.53;1.57;;;;;;;;;;5033469;28;20504;-76
2021/09/12 13:54:30;;;;;;;2.03;1.50;;;;;;;;;;5016103;28;20499;-77
2021/09/12 13:56:56;;;;;;;2.47;1.53;;;;;;;;;;5016188;28;20420;-78
2021/09/12 13:59:22;;;;;;;2.73;1.60;;;;;;;;;;5033713;28;20421;-77
2021/09/12 14:01:48;;;;;;;2.50;1.60;;;;;;;;;;5033291;28;20475;-78
2021/09/12 14:04:14;;;;;;;3.27;1.60;;;;;;;;;;5033521;28;20456;-77
2021/09/12 14:06:40;;;;;;;2.17;1.37;;;;;;;;;;5033542;28;20409;-76
2021/09/12 14:09:06;;;;;;;4.83;1.60;;;;;;;;;;5033492;28;20445;-76
2021/09/12 14:11:32;;;;;;;2.97;1.70;;;;;;;;;;5033430;28;20841;-76
2021/09/12 14:13:58;;;;;;;1.73;1.37;;;;;;;;;;5033608;28;20405;-76
2021/09/12 14:16:24;;;;;;;4.30;1.63;;;;;;;;;;5033411;28;20415;-76
2021/09/12 14:18:50;;;;;;;4.13;1.60;;;;;;;;;;5033501;28;20477;-76
2021/09/12 14:21:17;;;;;;;2.73;1.53;;;;;;;;;;5033086;28;20488;-76
2021/09/12 14:23:45;;;;;;;2.10;1.90;;;;;;;;;;5033479;28;20470;-76
2021/09/12 14:26:11;;;;;;;3.77;1.57;;;;;;;;;;5016032;28;20439;-76
2021/09/12 14:28:37;;;;;;;3.53;1.60;;;;;;;;;;5033381;28;20391;-76
2021/09/12 14:31:03;;;;;;;4.60;1.57;;;;;;;;;;5032352;28;20412;-76
2021/09/12 14:33:29;;;;;;;2.97;1.93;;;;;;;;;;5034779;28;20489;-76
2021/09/12 14:35:55;;;;;;;3.30;1.70;;;;;;;;;;5033138;28;20420;-77
2021/09/12 14:38:21;;;;;;;3.70;1.60;;;;;;;;;;5033172;28;20483;-77